createdAt,value
2018-10-07T00:00:05.844Z,99.90
2018-10-07T00:02:35.030Z,99.90
2018-10-07T00:05:04.263Z,99.90
2018-10-07T00:07:33.371Z,99.90
2018-10-07T00:10:02.534Z,99.90
2018-10-07T00:12:33.149Z,99.90
2018-10-07T00:15:02.271Z,99.90
2018-10-07T00:17:31.515Z,99.90
2018-10-07T00:20:00.662Z,99.90
2018-10-07T00:22:30.331Z,99.90
2018-10-07T00:24:59.442Z,99.90
2018-10-07T00:27:29.070Z,99.90
2018-10-07T00:29:58.242Z,99.90
2018-10-07T00:32:28.008Z,99.90
2018-10-07T00:34:57.158Z,99.90
2018-10-07T00:37:26.266Z,99.90
2018-10-07T00:39:55.383Z,99.90
2018-10-07T00:42:24.621Z,99.90
2018-10-07T00:44:53.788Z,99.90
2018-10-07T00:47:22.911Z,99.90
2018-10-07T00:49:52.072Z,99.90
2018-10-07T00:52:21.238Z,99.90
2018-10-07T00:54:50.413Z,99.90
2018-10-07T00:57:20.159Z,99.90
2018-10-07T00:59:49.335Z,99.90
2018-10-07T01:02:19.284Z,99.90
2018-10-07T01:04:48.733Z,99.90
2018-10-07T01:07:18.042Z,99.90
2018-10-07T01:09:47.332Z,99.90
2018-10-07T01:12:17.106Z,99.90
2018-10-07T01:14:46.290Z,99.90
2018-10-07T01:17:15.468Z,99.90
2018-10-07T01:19:44.663Z,99.90
2018-10-07T01:22:13.972Z,99.90
2018-10-07T01:24:43.111Z,99.90
2018-10-07T01:27:12.250Z,99.90
2018-10-07T01:29:41.427Z,99.90
2018-10-07T01:32:10.800Z,99.90
2018-10-07T01:34:39.935Z,99.90
2018-10-07T01:37:09.151Z,99.90
2018-10-07T01:39:38.411Z,99.90
2018-10-07T01:42:07.576Z,99.90
2018-10-07T01:44:36.735Z,99.90
2018-10-07T01:47:06.240Z,99.90
2018-10-07T01:49:35.337Z,99.90
2018-10-07T01:52:04.587Z,99.90
2018-10-07T01:54:33.724Z,99.90
2018-10-07T01:57:03.010Z,99.90
2018-10-07T01:59:32.234Z,99.90
2018-10-07T02:02:02.195Z,99.90
2018-10-07T02:04:31.330Z,99.90
2018-10-07T02:07:00.495Z,99.90
2018-10-07T02:09:29.618Z,99.90
2018-10-07T02:11:58.895Z,99.90
2018-10-07T02:14:28.029Z,99.90
2018-10-07T02:16:57.177Z,99.90
2018-10-07T02:19:26.283Z,99.90
2018-10-07T02:21:55.443Z,99.90
2018-10-07T02:24:24.574Z,99.90
2018-10-07T02:26:53.711Z,99.90
2018-10-07T02:29:23.490Z,99.90
2018-10-07T02:31:52.696Z,99.90
2018-10-07T02:34:22.440Z,99.90
2018-10-07T02:36:51.562Z,99.90
2018-10-07T02:39:20.803Z,99.90
2018-10-07T02:41:49.954Z,99.90
2018-10-07T02:44:19.087Z,99.90
2018-10-07T02:46:48.244Z,99.90
2018-10-07T02:49:17.379Z,99.90
2018-10-07T02:51:46.758Z,99.90
2018-10-07T02:54:15.922Z,99.90
2018-10-07T02:56:45.293Z,99.90
2018-10-07T02:59:15.513Z,99.90
2018-10-07T03:01:44.919Z,99.90
2018-10-07T03:04:14.116Z,99.90
2018-10-07T03:06:43.314Z,99.90
2018-10-07T03:09:12.504Z,99.90
2018-10-07T03:11:41.681Z,99.90
2018-10-07T03:14:10.902Z,99.90
2018-10-07T03:16:40.623Z,99.90
2018-10-07T03:19:09.767Z,99.90
2018-10-07T03:21:39.098Z,99.90
2018-10-07T03:24:08.423Z,99.90
2018-10-07T03:26:37.571Z,99.90
2018-10-07T03:29:07.315Z,99.90
2018-10-07T03:31:36.472Z,99.90
2018-10-07T03:34:05.651Z,99.90
2018-10-07T03:36:34.802Z,99.90
2018-10-07T03:39:05.355Z,99.90
2018-10-07T03:41:34.538Z,99.90
2018-10-07T03:44:03.699Z,99.90
2018-10-07T03:46:32.855Z,99.90
2018-10-07T03:49:02.240Z,99.90
2018-10-07T03:51:31.530Z,99.90
2018-10-07T03:54:00.632Z,99.90
2018-10-07T03:56:29.811Z,99.90
2018-10-07T03:58:58.948Z,99.90
2018-10-07T04:01:28.262Z,99.90
2018-10-07T04:03:57.408Z,99.90
2018-10-07T04:06:26.748Z,99.90
2018-10-07T04:08:55.933Z,99.90
2018-10-07T04:11:26.279Z,99.90
2018-10-07T04:13:56.207Z,99.90
2018-10-07T04:16:25.734Z,99.90
2018-10-07T04:18:54.842Z,99.90
2018-10-07T04:21:23.998Z,99.90
2018-10-07T04:23:53.110Z,99.90
2018-10-07T04:26:22.260Z,99.90
2018-10-07T04:28:51.367Z,99.90
2018-10-07T04:31:20.478Z,99.90
2018-10-07T04:33:49.575Z,99.90
2018-10-07T04:36:18.701Z,99.90
2018-10-07T04:38:47.871Z,99.90
2018-10-07T04:41:17.054Z,99.90
2018-10-07T04:43:46.212Z,99.90
2018-10-07T04:46:15.401Z,99.90
2018-10-07T04:48:44.453Z,99.90
2018-10-07T04:51:13.596Z,99.90
2018-10-07T04:53:42.686Z,99.90
2018-10-07T04:56:11.827Z,99.90
2018-10-07T04:58:40.919Z,99.90
2018-10-07T05:01:10.054Z,99.90
2018-10-07T05:03:39.134Z,99.90
2018-10-07T05:06:08.325Z,99.90
2018-10-07T05:08:37.581Z,99.90
2018-10-07T05:11:06.875Z,99.90
2018-10-07T05:13:43.614Z,99.90
2018-10-07T05:16:14.967Z,99.90
2018-10-07T05:18:44.321Z,99.90
2018-10-07T05:21:13.510Z,99.90
2018-10-07T05:23:42.630Z,99.90
2018-10-07T05:26:11.791Z,99.90
2018-10-07T05:28:41.822Z,99.90
2018-10-07T05:31:11.075Z,99.90
2018-10-07T05:33:40.228Z,99.90
2018-10-07T05:36:09.344Z,99.90
2018-10-07T05:38:38.474Z,99.90
2018-10-07T05:41:07.606Z,99.90
2018-10-07T05:43:36.832Z,99.90
2018-10-07T05:46:06.046Z,99.90
2018-10-07T05:48:35.171Z,99.90
2018-10-07T05:51:04.312Z,99.90
2018-10-07T05:53:34.306Z,99.90
2018-10-07T05:56:03.402Z,99.90
2018-10-07T05:58:33.262Z,99.90
2018-10-07T06:01:11.016Z,99.90
2018-10-07T06:03:50.293Z,99.90
2018-10-07T06:06:19.465Z,99.90
2018-10-07T06:08:48.687Z,99.90
2018-10-07T06:11:18.112Z,99.90
2018-10-07T06:13:47.306Z,99.90
2018-10-07T06:16:16.466Z,99.90
2018-10-07T06:18:45.618Z,99.90
2018-10-07T06:21:14.730Z,99.90
2018-10-07T06:23:43.964Z,99.90
2018-10-07T06:26:13.075Z,99.90
2018-10-07T06:28:42.261Z,99.90
2018-10-07T06:31:11.390Z,99.90
2018-10-07T06:33:40.534Z,99.90
2018-10-07T06:36:09.630Z,99.90
2018-10-07T06:38:38.878Z,99.90
2018-10-07T06:41:08.054Z,99.90
2018-10-07T06:43:37.249Z,99.90
2018-10-07T06:46:06.562Z,99.90
2018-10-07T06:48:35.726Z,99.90
2018-10-07T06:51:04.903Z,99.90
2018-10-07T06:53:34.174Z,99.90
2018-10-07T06:56:03.335Z,99.90
2018-10-07T06:58:32.479Z,99.90
2018-10-07T07:01:01.707Z,99.90
2018-10-07T07:03:30.859Z,99.90
2018-10-07T07:05:59.982Z,99.90
2018-10-07T07:08:29.099Z,99.90
2018-10-07T07:10:58.637Z,99.90
2018-10-07T07:13:28.185Z,99.90
2018-10-07T07:15:58.516Z,99.90
2018-10-07T07:18:27.615Z,99.90
2018-10-07T07:20:56.706Z,99.90
2018-10-07T07:23:26.396Z,99.90
2018-10-07T07:25:55.568Z,99.90
2018-10-07T07:28:24.950Z,99.90
2018-10-07T07:30:54.059Z,99.90
2018-10-07T07:33:23.158Z,99.90
2018-10-07T07:35:52.509Z,99.90
2018-10-07T07:38:21.718Z,99.90
2018-10-07T07:40:51.418Z,99.90
2018-10-07T07:43:20.667Z,99.90
2018-10-07T07:45:50.000Z,99.90
2018-10-07T07:48:20.359Z,99.90
2018-10-07T07:50:49.492Z,99.90
2018-10-07T07:53:18.789Z,99.90
2018-10-07T07:55:47.965Z,99.90
2018-10-07T07:58:17.685Z,99.90
2018-10-07T08:00:46.907Z,99.90
2018-10-07T08:03:16.562Z,99.90
2018-10-07T08:05:46.578Z,99.90
2018-10-07T08:08:15.742Z,99.90
2018-10-07T08:10:45.972Z,99.90
2018-10-07T08:13:15.400Z,99.90
2018-10-07T08:15:44.730Z,99.90
2018-10-07T08:18:14.048Z,99.90
2018-10-07T08:20:43.220Z,99.90
2018-10-07T08:23:12.470Z,99.90
2018-10-07T08:25:48.426Z,99.90
2018-10-07T08:28:17.567Z,99.90
2018-10-07T08:30:46.723Z,99.90
2018-10-07T08:33:15.878Z,99.90
2018-10-07T08:35:45.043Z,99.90
2018-10-07T08:38:14.250Z,99.90
2018-10-07T08:40:43.450Z,99.90
2018-10-07T08:43:12.618Z,99.90
2018-10-07T08:45:41.914Z,99.90
2018-10-07T08:48:11.427Z,99.90
2018-10-07T08:50:40.691Z,99.90
2018-10-07T08:53:09.854Z,99.90
2018-10-07T08:55:38.991Z,99.90
2018-10-07T08:58:08.131Z,99.90
2018-10-07T09:00:37.352Z,99.90
2018-10-07T09:03:06.450Z,99.90
2018-10-07T09:05:35.559Z,99.90
2018-10-07T09:08:04.663Z,99.90
2018-10-07T09:10:33.786Z,99.90
2018-10-07T09:13:02.877Z,99.90
2018-10-07T09:15:31.979Z,99.90
2018-10-07T09:18:01.069Z,99.90
2018-10-07T09:20:30.161Z,99.20
2018-10-07T09:22:59.311Z,99.60
2018-10-07T09:25:28.454Z,97.30
2018-10-07T09:27:58.949Z,95.40
2018-10-07T09:30:28.994Z,91.10
2018-10-07T09:32:58.896Z,90.30
2018-10-07T09:35:27.955Z,84.50
2018-10-07T09:37:57.053Z,90.40
2018-10-07T09:40:27.571Z,93.70
2018-10-07T09:42:56.735Z,91.30
2018-10-07T09:45:26.637Z,91.40
2018-10-07T09:47:56.673Z,91.10
2018-10-07T09:50:25.950Z,89.80
2018-10-07T09:52:55.759Z,86.80
2018-10-07T09:55:25.091Z,83.30
2018-10-07T09:57:55.650Z,79.30
2018-10-07T10:00:30.721Z,83.00
2018-10-07T10:02:59.890Z,90.10
2018-10-07T10:05:29.093Z,80.60
2018-10-07T10:07:58.224Z,71.80
2018-10-07T10:10:27.748Z,76.70
2018-10-07T10:12:57.024Z,73.40
2018-10-07T10:15:27.327Z,67.70
2018-10-07T10:18:02.245Z,69.50
2018-10-07T10:20:48.588Z,73.80
2018-10-07T10:23:26.662Z,66.60
2018-10-07T10:26:05.575Z,67.70
2018-10-07T10:28:40.976Z,66.20
2018-10-07T10:31:14.874Z,66.40
2018-10-07T10:33:48.996Z,67.70
2018-10-07T10:36:30.402Z,65.80
2018-10-07T10:39:06.947Z,62.40
2018-10-07T10:42:44.215Z,64.70
2018-10-07T10:45:26.988Z,66.50
2018-10-07T10:47:58.467Z,65.70
2018-10-07T10:50:33.764Z,63.40
2018-10-07T10:53:16.477Z,62.10
2018-10-07T10:56:24.312Z,63.30
2018-10-07T10:59:03.550Z,62.30
2018-10-07T11:01:40.411Z,63.00
2018-10-07T11:04:25.018Z,62.20
2018-10-07T11:07:29.913Z,62.00
2018-10-07T11:10:11.051Z,63.90
2018-10-07T11:12:46.985Z,63.10
2018-10-07T11:15:24.778Z,61.30
2018-10-07T11:18:05.057Z,61.90
2018-10-07T11:21:57.100Z,58.80
2018-10-07T11:24:38.181Z,58.00
2018-10-07T11:27:10.578Z,63.40
2018-10-07T11:29:50.385Z,64.20
2018-10-07T11:32:33.632Z,60.60
2018-10-07T11:35:40.910Z,59.80
2018-10-07T11:38:31.572Z,59.90
2018-10-07T11:41:08.778Z,60.10
2018-10-07T11:43:50.334Z,57.90
2018-10-07T11:46:52.860Z,58.00
2018-10-07T11:49:34.263Z,58.70
2018-10-07T11:53:11.088Z,56.20
2018-10-07T11:55:40.692Z,57.70
2018-10-07T11:58:10.063Z,57.40
2018-10-07T12:00:39.275Z,56.70
2018-10-07T12:03:08.392Z,54.60
2018-10-07T12:05:37.551Z,54.50
2018-10-07T12:08:07.714Z,55.10
2018-10-07T12:10:36.947Z,56.40
2018-10-07T12:13:06.555Z,56.80
2018-10-07T12:15:35.712Z,57.50
2018-10-07T12:18:05.072Z,55.30
2018-10-07T12:20:34.548Z,54.00
2018-10-07T12:23:04.134Z,54.70
2018-10-07T12:25:33.767Z,56.30
2018-10-07T12:28:02.987Z,56.10
2018-10-07T12:30:32.119Z,58.50
2018-10-07T12:33:01.257Z,56.20
2018-10-07T12:35:30.382Z,56.40
2018-10-07T12:37:59.544Z,56.30
2018-10-07T12:40:28.779Z,55.50
2018-10-07T12:42:57.940Z,56.60
2018-10-07T12:45:27.087Z,56.90
2018-10-07T12:47:56.204Z,54.50
2018-10-07T12:50:25.556Z,54.10
2018-10-07T12:52:55.218Z,52.80
2018-10-07T12:55:24.522Z,51.60
2018-10-07T12:57:55.284Z,50.50
2018-10-07T13:00:24.688Z,50.90
2018-10-07T13:02:54.298Z,54.80
2018-10-07T13:05:23.704Z,52.80
2018-10-07T13:07:53.002Z,52.50
2018-10-07T13:10:22.151Z,54.00
2018-10-07T13:12:51.279Z,50.60
2018-10-07T13:15:20.421Z,53.00
2018-10-07T13:17:49.910Z,53.20
2018-10-07T13:20:19.067Z,53.50
2018-10-07T13:22:48.988Z,56.40
2018-10-07T13:25:18.086Z,56.80
2018-10-07T13:27:47.246Z,52.50
2018-10-07T13:30:16.392Z,51.70
2018-10-07T13:32:46.335Z,51.30
2018-10-07T13:35:15.506Z,51.40
2018-10-07T13:37:45.428Z,53.80
2018-10-07T13:40:14.667Z,53.50
2018-10-07T13:42:44.470Z,55.70
2018-10-07T13:45:13.599Z,58.90
2018-10-07T13:47:42.834Z,61.40
2018-10-07T13:50:11.971Z,61.90
2018-10-07T13:52:41.119Z,64.90
2018-10-07T13:55:10.223Z,66.80
2018-10-07T13:57:39.359Z,67.10
2018-10-07T14:00:08.718Z,64.50
2018-10-07T14:02:38.025Z,66.00
2018-10-07T14:05:08.263Z,64.30
2018-10-07T14:07:37.424Z,62.00
2018-10-07T14:10:06.907Z,63.10
2018-10-07T14:12:36.038Z,66.10
2018-10-07T14:15:05.716Z,64.20
2018-10-07T14:17:34.845Z,66.50
2018-10-07T14:20:04.559Z,66.20
2018-10-07T14:22:34.394Z,65.60
2018-10-07T14:25:04.208Z,64.90
2018-10-07T14:27:34.066Z,66.20
2018-10-07T14:30:03.343Z,67.40
2018-10-07T14:32:32.486Z,66.10
2018-10-07T14:35:02.548Z,65.80
2018-10-07T14:37:32.319Z,66.00
2018-10-07T14:40:01.452Z,66.50
2018-10-07T14:42:30.555Z,65.40
2018-10-07T14:45:00.664Z,66.40
2018-10-07T14:47:30.314Z,66.20
2018-10-07T14:49:59.609Z,68.60
2018-10-07T14:52:28.686Z,70.50
2018-10-07T14:54:57.844Z,72.00
2018-10-07T14:57:26.919Z,73.00
2018-10-07T14:59:56.106Z,75.80
2018-10-07T15:02:25.188Z,80.80
2018-10-07T15:04:54.530Z,79.90
2018-10-07T15:07:23.667Z,82.60
2018-10-07T15:09:53.729Z,84.60
2018-10-07T15:12:22.910Z,86.30
2018-10-07T15:14:52.002Z,89.20
2018-10-07T15:17:21.140Z,88.90
2018-10-07T15:19:50.322Z,88.70
2018-10-07T15:22:19.459Z,87.90
2018-10-07T15:24:48.643Z,89.00
2018-10-07T15:27:17.740Z,84.70
2018-10-07T15:29:47.283Z,83.20
2018-10-07T15:32:16.334Z,83.40
2018-10-07T15:34:45.447Z,84.60
2018-10-07T15:37:14.552Z,79.80
2018-10-07T15:39:44.398Z,81.50
2018-10-07T15:42:14.121Z,81.90
2018-10-07T15:44:43.238Z,83.30
2018-10-07T15:47:12.376Z,84.60
2018-10-07T15:49:41.491Z,84.60
2018-10-07T15:52:11.210Z,88.00
2018-10-07T15:54:40.398Z,90.50
2018-10-07T15:57:09.503Z,90.90
2018-10-07T15:59:39.205Z,90.60
2018-10-07T16:02:08.905Z,91.50
2018-10-07T16:04:38.106Z,91.20
2018-10-07T16:07:07.244Z,91.80
2018-10-07T16:09:36.517Z,92.00
2018-10-07T16:12:05.654Z,92.70
2018-10-07T16:14:34.835Z,92.50
2018-10-07T16:17:04.015Z,93.30
2018-10-07T16:19:33.131Z,93.90
2018-10-07T16:22:02.266Z,93.30
2018-10-07T16:24:31.501Z,94.00
2018-10-07T16:27:00.534Z,93.80
2018-10-07T16:29:29.963Z,94.00
2018-10-07T16:31:59.116Z,95.00
2018-10-07T16:34:28.812Z,95.70
2018-10-07T16:36:57.937Z,96.20
2018-10-07T16:39:27.971Z,96.60
2018-10-07T16:41:57.137Z,97.10
2018-10-07T16:44:26.278Z,98.80
2018-10-07T16:46:55.412Z,99.90
2018-10-07T16:49:24.675Z,99.90
2018-10-07T16:51:53.814Z,99.90
2018-10-07T16:54:23.138Z,99.90
2018-10-07T16:56:52.854Z,99.90
2018-10-07T16:59:22.243Z,99.90
2018-10-07T17:01:51.387Z,99.90
2018-10-07T17:04:20.537Z,99.90
2018-10-07T17:06:49.704Z,99.90
2018-10-07T17:09:18.817Z,99.90
2018-10-07T17:11:48.127Z,99.90
2018-10-07T17:14:17.238Z,99.90
2018-10-07T17:16:46.491Z,99.90
2018-10-07T17:19:15.738Z,99.90
2018-10-07T17:21:44.890Z,99.90
2018-10-07T17:24:15.670Z,99.90
2018-10-07T17:26:45.018Z,99.90
2018-10-07T17:29:14.256Z,99.90
2018-10-07T17:31:50.039Z,99.90
2018-10-07T17:34:19.316Z,99.90
2018-10-07T17:36:48.458Z,99.90
2018-10-07T17:39:17.719Z,99.90
2018-10-07T17:41:46.861Z,99.90
2018-10-07T17:44:15.954Z,99.90
2018-10-07T17:46:45.213Z,99.90
2018-10-07T17:49:14.371Z,99.90
2018-10-07T17:51:43.493Z,99.90
2018-10-07T17:54:12.705Z,99.90
2018-10-07T17:56:41.803Z,99.90
2018-10-07T17:59:11.479Z,99.90
2018-10-07T18:01:40.620Z,99.90
2018-10-07T18:04:09.747Z,99.90
2018-10-07T18:06:38.891Z,99.90
2018-10-07T18:09:08.945Z,99.90
2018-10-07T18:11:38.075Z,99.90
2018-10-07T18:14:07.205Z,99.90
2018-10-07T18:16:36.359Z,99.90
2018-10-07T18:19:05.542Z,99.90
2018-10-07T18:21:34.688Z,99.90
2018-10-07T18:24:03.797Z,99.90
2018-10-07T18:26:33.218Z,99.90
2018-10-07T18:29:02.353Z,99.90
2018-10-07T18:31:31.496Z,99.90
2018-10-07T18:34:00.640Z,99.90
2018-10-07T18:36:29.752Z,99.90
2018-10-07T18:38:58.867Z,99.90
2018-10-07T18:41:27.985Z,99.90
2018-10-07T18:43:58.780Z,99.90
2018-10-07T18:46:28.552Z,99.90
2018-10-07T18:48:58.758Z,99.90
2018-10-07T18:51:27.728Z,99.90
2018-10-07T18:53:56.820Z,99.90
2018-10-07T18:56:26.053Z,99.90
2018-10-07T18:58:55.175Z,99.90
2018-10-07T19:01:25.767Z,99.90
2018-10-07T19:03:54.855Z,99.90
2018-10-07T19:06:23.995Z,99.90
2018-10-07T19:08:53.695Z,99.90
2018-10-07T19:11:22.842Z,99.90
2018-10-07T19:13:52.371Z,99.90
2018-10-07T19:16:21.819Z,99.90
2018-10-07T19:18:51.471Z,99.90
2018-10-07T19:21:24.361Z,99.90
2018-10-07T19:23:54.260Z,99.90
2018-10-07T19:26:26.149Z,99.90
2018-10-07T19:28:55.879Z,99.90
2018-10-07T19:31:25.762Z,99.90
2018-10-07T19:33:55.155Z,99.90
2018-10-07T19:36:25.775Z,99.90
2018-10-07T19:38:55.965Z,99.90
2018-10-07T19:41:25.653Z,99.90
2018-10-07T19:43:55.501Z,99.90
2018-10-07T19:46:26.819Z,99.90
2018-10-07T19:48:56.137Z,99.90
2018-10-07T19:51:26.626Z,99.90
2018-10-07T19:53:55.980Z,99.90
2018-10-07T19:56:27.792Z,99.90
2018-10-07T19:58:57.242Z,99.90
2018-10-07T20:01:26.609Z,99.90
2018-10-07T20:03:56.484Z,99.90
2018-10-07T20:06:26.218Z,99.90
2018-10-07T20:08:55.606Z,99.90
2018-10-07T20:11:25.330Z,99.90
2018-10-07T20:13:54.627Z,99.90
2018-10-07T20:16:23.986Z,99.90
2018-10-07T20:18:53.687Z,99.90
2018-10-07T20:21:23.095Z,99.90
2018-10-07T20:23:53.638Z,99.90
2018-10-07T20:26:23.763Z,99.90
2018-10-07T20:28:53.784Z,99.90
2018-10-07T20:31:25.564Z,99.90
2018-10-07T20:33:55.098Z,99.90
2018-10-07T20:36:24.868Z,99.90
2018-10-07T20:38:54.288Z,99.90
2018-10-07T20:41:25.104Z,99.90
2018-10-07T20:43:54.513Z,99.90
2018-10-07T20:46:23.643Z,99.90
2018-10-07T20:48:52.794Z,99.90
2018-10-07T20:51:21.975Z,99.90
2018-10-07T20:53:51.159Z,99.90
2018-10-07T20:56:20.369Z,99.90
2018-10-07T20:58:49.608Z,99.90
2018-10-07T21:01:18.774Z,99.90
2018-10-07T21:03:48.038Z,99.90
2018-10-07T21:06:17.203Z,99.90
2018-10-07T21:08:47.606Z,99.90
2018-10-07T21:11:16.765Z,99.90
2018-10-07T21:13:45.915Z,99.90
2018-10-07T21:16:16.495Z,99.90
2018-10-07T21:18:46.739Z,99.90
2018-10-07T21:21:17.334Z,99.90
2018-10-07T21:23:47.452Z,99.90
2018-10-07T21:26:18.316Z,99.90
2018-10-07T21:28:47.576Z,99.90
2018-10-07T21:31:16.690Z,99.90
2018-10-07T21:33:45.918Z,99.90
2018-10-07T21:36:15.070Z,99.90
2018-10-07T21:38:44.376Z,99.90
2018-10-07T21:41:13.524Z,99.90
2018-10-07T21:43:42.761Z,99.90
2018-10-07T21:46:11.886Z,99.90
2018-10-07T21:48:41.132Z,99.90
2018-10-07T21:51:10.276Z,99.90
2018-10-07T21:53:39.428Z,99.90
2018-10-07T21:56:08.588Z,99.90
2018-10-07T21:58:37.718Z,99.90
2018-10-07T22:01:06.893Z,99.90
2018-10-07T22:03:36.072Z,99.90
2018-10-07T22:06:05.204Z,99.90
2018-10-07T22:08:34.658Z,99.90
2018-10-07T22:11:03.769Z,99.90
2018-10-07T22:13:32.919Z,99.90
2018-10-07T22:16:02.053Z,99.90
2018-10-07T22:18:31.304Z,99.90
2018-10-07T22:21:00.411Z,99.90
2018-10-07T22:23:29.550Z,99.90
2018-10-07T22:25:59.266Z,99.90
2018-10-07T22:28:28.382Z,99.90
2018-10-07T22:30:57.502Z,99.90
2018-10-07T22:33:26.630Z,99.90
2018-10-07T22:35:55.758Z,99.90
2018-10-07T22:38:24.871Z,99.90
2018-10-07T22:40:53.982Z,99.90
2018-10-07T22:43:23.778Z,99.90
2018-10-07T22:45:52.880Z,99.90
2018-10-07T22:48:22.015Z,99.90
2018-10-07T22:50:51.114Z,99.90
2018-10-07T22:53:20.230Z,99.90
2018-10-07T22:55:49.326Z,99.90
2018-10-07T22:58:18.595Z,99.90
2018-10-07T23:00:47.686Z,99.90
2018-10-07T23:03:16.855Z,99.90
2018-10-07T23:05:45.964Z,99.90
2018-10-07T23:08:15.159Z,99.90
2018-10-07T23:10:44.273Z,99.90
2018-10-07T23:13:13.415Z,99.90
2018-10-07T23:15:42.518Z,99.90
2018-10-07T23:18:11.649Z,99.90
2018-10-07T23:20:40.738Z,99.90
2018-10-07T23:23:10.175Z,99.90
2018-10-07T23:25:39.277Z,99.90
2018-10-07T23:28:08.423Z,99.90
2018-10-07T23:30:37.539Z,99.90
2018-10-07T23:33:06.650Z,99.90
2018-10-07T23:35:35.865Z,99.90
2018-10-07T23:38:04.975Z,99.90
2018-10-07T23:40:34.147Z,99.90
2018-10-07T23:43:03.337Z,99.90
2018-10-07T23:45:32.540Z,99.90
2018-10-07T23:48:01.675Z,99.90
2018-10-07T23:50:30.791Z,99.90
2018-10-07T23:52:59.910Z,99.90
2018-10-07T23:55:29.055Z,99.90
2018-10-07T23:57:58.187Z,99.90
